createdAt,value
2017-04-15T04:00:27.617Z,8.92
2017-04-15T04:00:53.094Z,9.03
2017-04-15T04:01:18.599Z,9
2017-04-15T04:01:44.077Z,9.1
2017-04-15T04:02:09.558Z,8.99
2017-04-15T04:02:35.031Z,9.04
2017-04-15T04:03:00.497Z,9.03
2017-04-15T04:03:25.983Z,9.04
2017-04-15T04:03:51.479Z,9.1
2017-04-15T04:04:16.958Z,9.04
2017-04-15T04:04:42.421Z,9
2017-04-15T04:05:07.902Z,9.08
2017-04-15T04:05:33.375Z,9.02
2017-04-15T04:05:58.884Z,9.11
2017-04-15T04:06:24.403Z,9.03
2017-04-15T04:06:49.866Z,9.06
2017-04-15T04:07:15.304Z,9.11
2017-04-15T04:07:40.786Z,9.06
2017-04-15T04:08:06.248Z,9.03
2017-04-15T04:08:31.744Z,9.14
2017-04-15T04:08:57.206Z,9.03
2017-04-15T04:09:22.670Z,9.02
2017-04-15T04:09:48.123Z,9.13
2017-04-15T04:10:13.559Z,9.02
2017-04-15T04:10:39.082Z,9.03
2017-04-15T04:11:04.552Z,9.1
2017-04-15T04:11:30.048Z,9.06
2017-04-15T04:11:55.533Z,9.04
2017-04-15T04:12:20.984Z,9.03
2017-04-15T04:12:46.454Z,9.03
2017-04-15T04:13:11.915Z,9.03
2017-04-15T04:13:37.399Z,9.06
2017-04-15T04:14:02.866Z,9.06
2017-04-15T04:14:28.356Z,9.08
2017-04-15T04:14:53.848Z,9.08
2017-04-15T04:15:19.334Z,9.08
2017-04-15T04:15:44.822Z,8.99
2017-04-15T04:16:10.349Z,9.06
2017-04-15T04:16:35.840Z,9.02
2017-04-15T04:17:01.310Z,8.99
2017-04-15T04:17:26.781Z,8.95
2017-04-15T04:17:52.274Z,9
2017-04-15T04:18:17.758Z,9.11
2017-04-15T04:18:43.227Z,9.06
2017-04-15T04:19:08.700Z,9.03
2017-04-15T04:19:34.195Z,9.13
2017-04-15T04:19:59.691Z,9.03
2017-04-15T04:20:25.169Z,9.11
2017-04-15T04:20:50.629Z,9.06
2017-04-15T04:21:16.099Z,9.06
2017-04-15T04:21:41.586Z,9.06
2017-04-15T04:22:07.043Z,9.03
2017-04-15T04:22:32.520Z,8.95
2017-04-15T04:22:58.027Z,8.97
2017-04-15T04:23:23.501Z,9.1
2017-04-15T04:23:48.962Z,9.1
2017-04-15T04:24:14.445Z,9.16
2017-04-15T04:24:39.956Z,9.08
2017-04-15T04:25:05.441Z,9.08
2017-04-15T04:25:30.930Z,9.04
2017-04-15T04:25:56.402Z,9.08
2017-04-15T04:26:21.851Z,9
2017-04-15T04:26:47.332Z,9.02
2017-04-15T04:27:12.827Z,9.03
2017-04-15T04:27:38.324Z,9.03
2017-04-15T04:28:03.803Z,9.03
2017-04-15T04:28:29.298Z,8.94
2017-04-15T04:28:54.791Z,9.04
2017-04-15T04:29:20.337Z,8.95
2017-04-15T04:29:45.865Z,9.02
2017-04-15T04:30:11.403Z,9.02
2017-04-15T04:30:36.956Z,9.02
2017-04-15T04:31:02.501Z,9.08
2017-04-15T04:31:28.022Z,9.1
2017-04-15T04:31:53.497Z,8.92
2017-04-15T04:32:18.988Z,8.91
2017-04-15T04:32:44.482Z,8.94
2017-04-15T04:33:09.962Z,8.95
2017-04-15T04:33:35.465Z,8.92
2017-04-15T04:34:00.955Z,8.95
2017-04-15T04:34:26.418Z,8.97
2017-04-15T04:34:51.879Z,8.89
2017-04-15T04:35:17.360Z,8.97
2017-04-15T04:35:42.838Z,8.99
2017-04-15T04:36:08.324Z,9.04
2017-04-15T04:36:33.854Z,9.02
2017-04-15T04:36:59.273Z,9.02
2017-04-15T04:37:24.746Z,8.99
2017-04-15T04:37:50.266Z,8.99
2017-04-15T04:38:15.740Z,8.92
2017-04-15T04:38:41.252Z,9
2017-04-15T04:39:06.739Z,8.99
2017-04-15T04:39:32.216Z,9
2017-04-15T04:39:57.720Z,9
2017-04-15T04:40:23.220Z,8.99
2017-04-15T04:40:48.665Z,8.94
2017-04-15T04:41:14.166Z,8.94
2017-04-15T04:41:39.647Z,9.04
2017-04-15T04:42:05.143Z,8.97
2017-04-15T04:42:30.645Z,8.88
2017-04-15T04:42:56.080Z,8.94
2017-04-15T04:43:21.539Z,8.92
2017-04-15T04:43:47.023Z,8.94
2017-04-15T04:44:12.536Z,8.97
2017-04-15T04:44:37.981Z,8.92
2017-04-15T04:45:03.459Z,8.97
2017-04-15T04:45:28.960Z,8.92
2017-04-15T04:45:54.518Z,8.94
2017-04-15T04:46:20.007Z,9.02
2017-04-15T04:46:45.507Z,8.91
2017-04-15T04:47:10.988Z,8.94
2017-04-15T04:47:36.470Z,8.91
2017-04-15T04:48:01.992Z,8.95
2017-04-15T04:48:27.444Z,8.97
2017-04-15T04:48:52.926Z,8.88
2017-04-15T04:49:18.400Z,8.82
2017-04-15T04:49:43.958Z,8.89
2017-04-15T04:50:09.439Z,8.84
2017-04-15T04:50:34.919Z,8.92
2017-04-15T04:51:00.416Z,8.91
2017-04-15T04:51:25.915Z,8.91
2017-04-15T04:51:51.406Z,8.89
2017-04-15T04:52:16.870Z,8.94
2017-04-15T04:52:42.359Z,8.92
2017-04-15T04:53:07.844Z,8.85
2017-04-15T04:53:33.359Z,8.85
2017-04-15T04:53:58.837Z,8.97
2017-04-15T04:54:24.327Z,8.91
2017-04-15T04:54:49.798Z,8.85
2017-04-15T04:55:15.274Z,8.89
2017-04-15T04:55:40.739Z,8.97
2017-04-15T04:56:06.195Z,8.87
2017-04-15T04:56:31.688Z,8.91
2017-04-15T04:56:57.139Z,8.91
2017-04-15T04:57:22.622Z,8.85
2017-04-15T04:57:48.108Z,8.85
2017-04-15T04:58:13.592Z,8.88
2017-04-15T04:58:39.119Z,8.88
2017-04-15T04:59:04.586Z,8.88
2017-04-15T04:59:30.058Z,8.85
2017-04-15T04:59:55.558Z,8.84
2017-04-15T05:00:21.046Z,8.88
2017-04-15T05:00:46.589Z,8.85
2017-04-15T05:01:12.090Z,8.89
2017-04-15T05:01:37.559Z,8.81
2017-04-15T05:02:03.023Z,8.91
2017-04-15T05:02:28.493Z,8.91
2017-04-15T05:02:53.995Z,8.87
2017-04-15T05:03:19.469Z,8.89
2017-04-15T05:03:44.937Z,8.88
2017-04-15T05:04:10.408Z,8.89
2017-04-15T05:04:35.874Z,8.85
2017-04-15T05:05:01.334Z,8.85
2017-04-15T05:05:26.845Z,8.79
2017-04-15T05:05:52.316Z,8.89
2017-04-15T05:06:17.773Z,8.84
2017-04-15T05:06:43.267Z,8.89
2017-04-15T05:07:08.731Z,8.89
2017-04-15T05:07:34.233Z,8.85
2017-04-15T05:07:59.673Z,8.84
2017-04-15T05:08:25.134Z,8.81
2017-04-15T05:08:50.597Z,8.85
2017-04-15T05:09:16.058Z,8.89
2017-04-15T05:09:41.515Z,8.91
2017-04-15T05:10:07.033Z,8.74
2017-04-15T05:10:32.518Z,8.89
2017-04-15T05:10:58.063Z,8.88
2017-04-15T05:11:23.642Z,8.82
2017-04-15T05:11:49.128Z,8.89
2017-04-15T05:12:14.656Z,8.82
2017-04-15T05:12:40.160Z,8.85
2017-04-15T05:13:05.661Z,8.74
2017-04-15T05:13:31.136Z,8.81
2017-04-15T05:13:56.646Z,8.88
2017-04-15T05:14:22.085Z,8.88
2017-04-15T05:14:47.588Z,8.82
2017-04-15T05:15:13.086Z,8.89
2017-04-15T05:15:38.578Z,8.91
2017-04-15T05:16:04.060Z,8.82
2017-04-15T05:16:29.613Z,8.84
2017-04-15T05:16:55.063Z,8.81
2017-04-15T05:17:20.608Z,8.89
2017-04-15T05:17:46.050Z,8.91
2017-04-15T05:18:11.563Z,8.81
2017-04-15T05:18:37.049Z,8.84
2017-04-15T05:19:02.546Z,8.84
2017-04-15T05:19:27.999Z,8.85
2017-04-15T05:19:53.494Z,8.76
2017-04-15T05:20:18.992Z,8.79
2017-04-15T05:20:44.482Z,8.81
2017-04-15T05:21:09.985Z,8.82
2017-04-15T05:21:35.488Z,8.81
2017-04-15T05:22:00.970Z,8.81
2017-04-15T05:22:26.433Z,8.82
2017-04-15T05:22:51.893Z,8.88
2017-04-15T05:23:17.370Z,8.85
2017-04-15T05:23:42.872Z,8.7
2017-04-15T05:24:08.330Z,8.76
2017-04-15T05:24:33.775Z,8.79
2017-04-15T05:24:59.260Z,8.82
2017-04-15T05:25:24.727Z,8.78
2017-04-15T05:25:50.207Z,8.69
2017-04-15T05:26:15.702Z,8.79
2017-04-15T05:26:41.137Z,8.85
2017-04-15T05:27:06.639Z,8.81
2017-04-15T05:27:32.117Z,8.87
2017-04-15T05:27:57.628Z,8.76
2017-04-15T05:28:23.103Z,8.67
2017-04-15T05:28:48.572Z,8.78
2017-04-15T05:29:14.115Z,8.78
2017-04-15T05:29:39.601Z,8.81
2017-04-15T05:30:05.053Z,8.79
2017-04-15T05:30:30.519Z,8.87
2017-04-15T05:30:56.015Z,8.7
2017-04-15T05:31:21.509Z,8.78
2017-04-15T05:31:46.982Z,8.84
2017-04-15T05:32:12.456Z,8.84
2017-04-15T05:32:37.961Z,8.81
2017-04-15T05:33:03.457Z,8.79
2017-04-15T05:33:28.991Z,8.69
2017-04-15T05:33:54.470Z,8.78
2017-04-15T05:34:19.947Z,8.76
2017-04-15T05:34:45.417Z,8.76
2017-04-15T05:35:10.931Z,8.82
2017-04-15T05:35:36.449Z,8.73
2017-04-15T05:36:01.913Z,8.64
2017-04-15T05:36:27.423Z,8.76
2017-04-15T05:36:52.881Z,8.73
2017-04-15T05:37:18.393Z,8.78
2017-04-15T05:37:43.908Z,8.82
2017-04-15T05:38:09.368Z,8.71
2017-04-15T05:38:34.833Z,8.76
2017-04-15T05:39:00.282Z,8.76
2017-04-15T05:39:25.779Z,8.81
2017-04-15T05:39:51.286Z,8.74
2017-04-15T05:40:16.856Z,8.71
2017-04-15T05:40:42.235Z,8.79
2017-04-15T05:41:07.708Z,8.81
2017-04-15T05:41:33.252Z,8.74
2017-04-15T05:41:58.729Z,8.74
2017-04-15T05:42:24.218Z,8.85
2017-04-15T05:42:49.675Z,8.76
2017-04-15T05:43:15.231Z,8.84
2017-04-15T05:43:40.675Z,8.79
2017-04-15T05:44:06.192Z,8.78
2017-04-15T05:44:31.720Z,8.81
2017-04-15T05:44:57.200Z,8.81
2017-04-15T05:45:22.699Z,8.81
2017-04-15T05:45:48.151Z,8.74
2017-04-15T05:46:13.697Z,8.78
2017-04-15T05:46:39.151Z,8.81
2017-04-15T05:47:04.654Z,8.82
2017-04-15T05:47:30.108Z,8.81
2017-04-15T05:47:55.609Z,8.79
2017-04-15T05:48:21.114Z,8.71
2017-04-15T05:48:46.584Z,8.81
2017-04-15T05:49:12.081Z,8.82
2017-04-15T05:49:37.576Z,8.79
2017-04-15T05:50:03.017Z,8.82
2017-04-15T05:50:28.491Z,8.79
2017-04-15T05:50:53.970Z,8.82
2017-04-15T05:51:19.467Z,8.79
2017-04-15T05:51:45.004Z,8.84
2017-04-15T05:52:10.494Z,8.67
2017-04-15T05:52:35.960Z,8.82
2017-04-15T05:53:01.476Z,8.84
2017-04-15T05:53:26.938Z,8.82
2017-04-15T05:53:52.402Z,8.82
2017-04-15T05:54:17.915Z,8.76
2017-04-15T05:54:43.380Z,8.79
2017-04-15T05:55:08.856Z,8.79
2017-04-15T05:55:34.340Z,8.78
2017-04-15T05:55:59.850Z,8.79
2017-04-15T05:56:25.357Z,8.85
2017-04-15T05:56:50.831Z,8.84
2017-04-15T05:57:16.339Z,8.73
2017-04-15T05:57:41.836Z,8.79
2017-04-15T05:58:07.313Z,8.74
2017-04-15T05:58:32.811Z,8.76
2017-04-15T05:58:58.299Z,8.73
2017-04-15T05:59:23.806Z,8.76
2017-04-15T05:59:49.312Z,8.6
2017-04-15T06:00:14.815Z,8.73
2017-04-15T06:00:40.320Z,8.66
2017-04-15T06:01:05.819Z,8.71
2017-04-15T06:01:31.321Z,8.71
2017-04-15T06:01:56.793Z,8.71
2017-04-15T06:02:22.272Z,8.7
2017-04-15T06:02:47.742Z,8.78
2017-04-15T06:03:13.275Z,8.78
2017-04-15T06:03:38.782Z,8.76
2017-04-15T06:04:04.268Z,8.73
2017-04-15T06:04:29.743Z,8.73
2017-04-15T06:04:55.208Z,8.74
2017-04-15T06:05:20.711Z,8.76
2017-04-15T06:05:46.208Z,8.76
2017-04-15T06:06:11.676Z,8.74
2017-04-15T06:06:37.181Z,8.6
2017-04-15T06:07:02.648Z,8.7
2017-04-15T06:07:28.189Z,8.7
2017-04-15T06:07:53.676Z,8.69
2017-04-15T06:08:19.175Z,8.71
2017-04-15T06:08:44.654Z,8.73
2017-04-15T06:09:10.085Z,8.7
2017-04-15T06:09:35.571Z,8.85
2017-04-15T06:10:01.039Z,8.76
2017-04-15T06:10:26.642Z,8.76
2017-04-15T06:10:52.068Z,8.74
2017-04-15T06:11:17.529Z,8.71
2017-04-15T06:11:42.968Z,8.71
2017-04-15T06:12:08.494Z,8.61
2017-04-15T06:12:33.965Z,8.71
2017-04-15T06:12:59.435Z,8.82
2017-04-15T06:13:24.950Z,8.73
2017-04-15T06:13:50.450Z,8.81
2017-04-15T06:14:15.941Z,8.79
2017-04-15T06:14:41.451Z,8.76
2017-04-15T06:15:06.929Z,8.78
2017-04-15T06:15:32.398Z,8.73
2017-04-15T06:15:57.910Z,8.76
2017-04-15T06:16:23.379Z,8.74
2017-04-15T06:16:48.833Z,8.82
2017-04-15T06:17:14.333Z,8.79
2017-04-15T06:17:39.804Z,8.79
2017-04-15T06:18:05.280Z,8.78
2017-04-15T06:18:30.794Z,8.81
2017-04-15T06:18:56.288Z,8.76
2017-04-15T06:19:21.771Z,8.81
2017-04-15T06:19:47.214Z,8.78
2017-04-15T06:20:12.697Z,8.73
2017-04-15T06:20:38.192Z,8.81
2017-04-15T06:21:03.674Z,8.73
2017-04-15T06:21:29.169Z,8.78
2017-04-15T06:21:54.675Z,8.84
2017-04-15T06:22:20.192Z,8.84
2017-04-15T06:22:45.687Z,8.81
2017-04-15T06:23:11.165Z,8.76
2017-04-15T06:23:36.625Z,8.81
2017-04-15T06:24:02.128Z,8.82
2017-04-15T06:24:27.622Z,8.74
2017-04-15T06:24:53.086Z,8.79
2017-04-15T06:25:18.569Z,8.78
2017-04-15T06:25:44.068Z,8.78
2017-04-15T06:26:09.563Z,8.79
2017-04-15T06:26:35.028Z,8.79
2017-04-15T06:27:00.520Z,8.82
2017-04-15T06:27:26.035Z,8.82
2017-04-15T06:27:51.530Z,8.76
2017-04-15T06:28:16.982Z,8.78
2017-04-15T06:28:42.471Z,8.7
2017-04-15T06:29:07.946Z,8.78
2017-04-15T06:29:33.442Z,8.79
2017-04-15T06:29:58.918Z,8.82
2017-04-15T06:30:24.416Z,8.78
2017-04-15T06:30:49.857Z,8.76
2017-04-15T06:31:15.327Z,8.71
2017-04-15T06:31:40.828Z,8.84
2017-04-15T06:32:06.335Z,8.82
2017-04-15T06:32:31.820Z,8.78
2017-04-15T06:32:57.341Z,8.79
2017-04-15T06:33:22.809Z,8.78
2017-04-15T06:33:48.264Z,8.82
2017-04-15T06:34:13.745Z,8.79
2017-04-15T06:34:39.319Z,8.79
2017-04-15T06:35:04.772Z,8.73
2017-04-15T06:35:30.450Z,8.74
2017-04-15T06:35:56.133Z,8.79
2017-04-15T06:36:21.604Z,8.78
2017-04-15T06:36:47.094Z,8.73
2017-04-15T06:37:12.618Z,8.76
2017-04-15T06:37:38.127Z,8.81
2017-04-15T06:38:03.600Z,8.74
2017-04-15T06:38:29.074Z,8.73
2017-04-15T06:38:54.581Z,8.82
2017-04-15T06:39:20.067Z,8.7
2017-04-15T06:39:45.505Z,8.79
2017-04-15T06:40:11.015Z,8.78
2017-04-15T06:40:36.506Z,8.76
2017-04-15T06:41:01.980Z,8.85
2017-04-15T06:41:27.503Z,8.79
2017-04-15T06:41:53.035Z,8.82
2017-04-15T06:42:18.560Z,8.74
2017-04-15T06:42:43.958Z,8.76
2017-04-15T06:43:09.452Z,8.71
2017-04-15T06:43:34.973Z,8.7
2017-04-15T06:44:00.490Z,8.71
2017-04-15T06:44:25.950Z,8.81
2017-04-15T06:44:51.456Z,8.73
2017-04-15T06:45:17.017Z,8.78
2017-04-15T06:45:42.482Z,8.73
2017-04-15T06:46:07.972Z,8.74
2017-04-15T06:46:33.453Z,8.87
2017-04-15T06:46:58.935Z,8.74
2017-04-15T06:47:24.453Z,8.76
2017-04-15T06:47:49.948Z,8.74
2017-04-15T06:48:15.423Z,8.82
2017-04-15T06:48:40.919Z,8.78
2017-04-15T06:49:06.392Z,8.81
2017-04-15T06:49:31.909Z,8.82
2017-04-15T06:49:57.380Z,8.74
2017-04-15T06:50:22.920Z,8.79
2017-04-15T06:50:48.397Z,8.84
2017-04-15T06:51:13.861Z,8.7
2017-04-15T06:51:39.410Z,8.79
2017-04-15T06:52:04.874Z,8.76
2017-04-15T06:52:30.337Z,8.81
2017-04-15T06:52:55.856Z,8.78
2017-04-15T06:53:21.341Z,8.78
2017-04-15T06:53:46.857Z,8.81
2017-04-15T06:54:12.331Z,8.84
2017-04-15T06:54:37.855Z,8.85
2017-04-15T06:55:03.344Z,8.81
2017-04-15T06:55:28.894Z,8.87
2017-04-15T06:55:54.327Z,8.74
2017-04-15T06:56:19.814Z,8.84
2017-04-15T06:56:45.295Z,8.85
2017-04-15T06:57:10.873Z,8.89
2017-04-15T06:57:36.332Z,8.78
2017-04-15T06:58:01.810Z,8.87
2017-04-15T06:58:27.298Z,8.84
2017-04-15T06:58:52.777Z,8.87
2017-04-15T06:59:18.268Z,8.82
2017-04-15T06:59:43.732Z,8.87
2017-04-15T07:00:09.224Z,8.89
2017-04-15T07:00:34.763Z,8.92
2017-04-15T07:01:00.203Z,8.89
2017-04-15T07:01:25.665Z,8.84
2017-04-15T07:01:51.158Z,8.91
2017-04-15T07:02:16.673Z,8.89
2017-04-15T07:02:42.138Z,8.88
2017-04-15T07:03:07.593Z,8.87
2017-04-15T07:03:33.066Z,8.91
2017-04-15T07:03:58.543Z,8.94
2017-04-15T07:04:24.053Z,8.92
2017-04-15T07:04:49.537Z,8.89
2017-04-15T07:05:15.014Z,9.03
2017-04-15T07:05:40.538Z,8.95
2017-04-15T07:06:06.020Z,8.87
2017-04-15T07:06:31.524Z,8.92
2017-04-15T07:06:56.983Z,8.87
2017-04-15T07:07:22.464Z,8.87
2017-04-15T07:07:47.935Z,8.91
2017-04-15T07:08:13.416Z,8.94
2017-04-15T07:08:38.874Z,8.95
2017-04-15T07:09:04.377Z,8.99
2017-04-15T07:09:29.848Z,8.95
2017-04-15T07:09:55.363Z,8.97
2017-04-15T07:10:20.865Z,8.88
2017-04-15T07:10:46.381Z,8.94
2017-04-15T07:11:11.871Z,8.91
2017-04-15T07:11:37.341Z,8.94
2017-04-15T07:12:02.814Z,8.87
2017-04-15T07:12:28.300Z,8.92
2017-04-15T07:12:53.775Z,8.94
2017-04-15T07:13:19.265Z,8.88
2017-04-15T07:13:44.740Z,8.87
2017-04-15T07:14:10.201Z,8.89
2017-04-15T07:14:35.676Z,8.94
2017-04-15T07:15:01.184Z,8.97
2017-04-15T07:15:26.647Z,8.95
2017-04-15T07:15:52.225Z,9.06
2017-04-15T07:16:17.709Z,9.02
2017-04-15T07:16:43.173Z,9.02
2017-04-15T07:17:08.688Z,9.06
2017-04-15T07:17:34.156Z,9.03
2017-04-15T07:17:59.666Z,8.94
2017-04-15T07:18:25.129Z,8.94
2017-04-15T07:18:50.632Z,8.89
2017-04-15T07:19:16.091Z,8.99
2017-04-15T07:19:41.548Z,9.02
2017-04-15T07:20:07.027Z,8.88
2017-04-15T07:20:32.540Z,8.91
2017-04-15T07:20:58.019Z,8.92
2017-04-15T07:21:23.478Z,8.99
2017-04-15T07:21:48.984Z,8.94
2017-04-15T07:22:14.445Z,8.99
2017-04-15T07:22:39.937Z,8.91
2017-04-15T07:23:05.438Z,8.92
2017-04-15T07:23:30.920Z,8.99
2017-04-15T07:23:56.411Z,8.92
2017-04-15T07:24:21.898Z,9.03
2017-04-15T07:24:47.347Z,8.87
2017-04-15T07:25:12.863Z,9.03
2017-04-15T07:25:38.348Z,8.89
2017-04-15T07:26:03.828Z,8.99
2017-04-15T07:26:29.336Z,8.89
2017-04-15T07:26:54.828Z,8.91
2017-04-15T07:27:20.330Z,8.97
2017-04-15T07:27:45.813Z,8.91
2017-04-15T07:28:11.311Z,8.94
2017-04-15T07:28:36.817Z,8.91
2017-04-15T07:29:02.297Z,8.97
2017-04-15T07:29:27.801Z,8.99
2017-04-15T07:29:53.304Z,8.99
2017-04-15T07:30:18.788Z,8.97
2017-04-15T07:30:44.300Z,9.06
2017-04-15T07:31:09.811Z,9
2017-04-15T07:31:35.297Z,9.1
2017-04-15T07:32:00.788Z,9.03
2017-04-15T07:32:26.291Z,8.99
2017-04-15T07:32:51.772Z,9.11
2017-04-15T07:33:17.230Z,9.03
2017-04-15T07:33:42.698Z,9.02
2017-04-15T07:34:08.169Z,9.04
2017-04-15T07:34:33.659Z,9.1
2017-04-15T07:34:59.133Z,9.03
2017-04-15T07:35:24.646Z,9.04
2017-04-15T07:35:50.131Z,9.06
2017-04-15T07:36:15.590Z,9.11
2017-04-15T07:36:41.055Z,9.03
2017-04-15T07:37:06.520Z,9.04
2017-04-15T07:37:32.044Z,8.99
2017-04-15T07:37:57.500Z,9.06
2017-04-15T07:38:22.985Z,9.1
2017-04-15T07:38:48.467Z,9.04
2017-04-15T07:39:13.950Z,9.08
2017-04-15T07:39:39.444Z,9.04
2017-04-15T07:40:04.940Z,9.1
2017-04-15T07:40:30.434Z,9.04
2017-04-15T07:40:55.936Z,9.06
2017-04-15T07:41:21.433Z,9.06
2017-04-15T07:41:46.912Z,9.19
2017-04-15T07:42:12.388Z,9.13
2017-04-15T07:42:37.854Z,9.22
2017-04-15T07:43:03.343Z,9.11
2017-04-15T07:43:28.820Z,9.06
2017-04-15T07:43:54.294Z,9.11
2017-04-15T07:44:19.764Z,9.1
2017-04-15T07:44:45.254Z,9.16
2017-04-15T07:45:10.745Z,9.11
2017-04-15T07:45:36.215Z,9.13
2017-04-15T07:46:01.707Z,9.06
2017-04-15T07:46:27.228Z,9.18
2017-04-15T07:46:52.697Z,9.06
2017-04-15T07:47:18.186Z,9.11
2017-04-15T07:47:43.681Z,9.08
2017-04-15T07:48:09.158Z,9.22
2017-04-15T07:48:34.639Z,9.1
2017-04-15T07:49:00.125Z,9.19
2017-04-15T07:49:25.611Z,9.21
2017-04-15T07:49:51.089Z,9.21
2017-04-15T07:50:16.584Z,9.19
2017-04-15T07:50:42.056Z,9.23
2017-04-15T07:51:07.544Z,9.21
2017-04-15T07:51:32.992Z,9.13
2017-04-15T07:51:58.448Z,9.26
2017-04-15T07:52:23.947Z,9.22
2017-04-15T07:52:49.438Z,9.19
2017-04-15T07:53:14.907Z,9.19
2017-04-15T07:53:40.375Z,9.26
2017-04-15T07:54:05.863Z,9.21
2017-04-15T07:54:31.333Z,9.21
2017-04-15T07:54:56.821Z,9.25
2017-04-15T07:55:22.289Z,9.22
2017-04-15T07:55:47.772Z,9.25
2017-04-15T07:56:13.262Z,9.28
2017-04-15T07:56:38.715Z,9.25
2017-04-15T07:57:04.210Z,9.23
2017-04-15T07:57:29.687Z,9.29
2017-04-15T07:57:55.185Z,9.28
2017-04-15T07:58:20.655Z,9.28
2017-04-15T07:58:46.135Z,9.23
2017-04-15T07:59:11.628Z,9.37
2017-04-15T07:59:37.098Z,9.39
2017-04-15T08:00:02.582Z,9.39
2017-04-15T08:00:28.056Z,9.36
2017-04-15T08:00:53.536Z,9.4
2017-04-15T08:01:19.037Z,9.37
2017-04-15T08:01:44.518Z,9.36
2017-04-15T08:02:10.005Z,9.47
2017-04-15T08:02:35.495Z,9.39
2017-04-15T08:03:00.968Z,9.48
2017-04-15T08:03:26.455Z,9.51
2017-04-15T08:03:51.953Z,9.48
2017-04-15T08:04:17.433Z,9.59
2017-04-15T08:04:42.888Z,9.55
2017-04-15T08:05:08.362Z,9.59
2017-04-15T08:05:33.840Z,9.61
2017-04-15T08:05:59.298Z,9.56
2017-04-15T08:06:24.769Z,9.54
2017-04-15T08:06:50.224Z,9.64
2017-04-15T08:07:15.697Z,9.66
2017-04-15T08:07:41.168Z,9.68
2017-04-15T08:08:06.645Z,9.68
2017-04-15T08:08:32.138Z,9.68
2017-04-15T08:08:57.667Z,9.64
2017-04-15T08:09:23.153Z,9.73
2017-04-15T08:09:48.649Z,9.74
2017-04-15T08:10:14.131Z,9.82
2017-04-15T08:10:39.608Z,9.74
2017-04-15T08:11:05.105Z,9.77
2017-04-15T08:11:30.592Z,9.8
2017-04-15T08:11:56.094Z,9.79
2017-04-15T08:12:21.577Z,9.8
2017-04-15T08:12:47.039Z,9.8
2017-04-15T08:13:12.529Z,9.86
2017-04-15T08:13:38.035Z,9.86
2017-04-15T08:14:03.515Z,9.91
2017-04-15T08:14:29.004Z,9.82
2017-04-15T08:14:54.502Z,9.83
2017-04-15T08:15:19.981Z,9.87
2017-04-15T08:15:45.458Z,9.95
2017-04-15T08:16:10.931Z,9.83
2017-04-15T08:16:36.428Z,9.92
2017-04-15T08:17:01.924Z,9.89
2017-04-15T08:17:27.409Z,9.89
2017-04-15T08:17:52.911Z,9.98
2017-04-15T08:18:18.373Z,9.91
2017-04-15T08:18:43.883Z,9.94
2017-04-15T08:19:09.376Z,9.98
2017-04-15T08:19:34.860Z,9.97
2017-04-15T08:20:00.303Z,9.89
2017-04-15T08:20:25.771Z,10.02
2017-04-15T08:20:51.249Z,9.86
2017-04-15T08:21:16.804Z,9.95
2017-04-15T08:21:42.273Z,9.87
2017-04-15T08:22:07.744Z,9.95
2017-04-15T08:22:33.258Z,9.92
2017-04-15T08:22:58.706Z,10.05
2017-04-15T08:23:24.184Z,10.04
2017-04-15T08:23:49.700Z,10.02
2017-04-15T08:24:15.150Z,10.04
2017-04-15T08:24:40.643Z,10.04
2017-04-15T08:25:06.143Z,10.05
2017-04-15T08:25:31.626Z,10.09
2017-04-15T08:25:57.136Z,10.07
2017-04-15T08:26:22.635Z,10.02
2017-04-15T08:26:48.109Z,10.09
2017-04-15T08:27:13.644Z,10.16
2017-04-15T08:27:39.159Z,10.05
2017-04-15T08:28:04.658Z,10.05
2017-04-15T08:28:30.121Z,10.1
2017-04-15T08:28:55.634Z,10.05
2017-04-15T08:29:21.123Z,10.12
2017-04-15T08:29:46.611Z,9.98
2017-04-15T08:30:12.107Z,10.17
2017-04-15T08:30:37.582Z,10.12
2017-04-15T08:31:03.044Z,10.07
2017-04-15T08:31:28.514Z,10.07
2017-04-15T08:31:53.996Z,10.17
2017-04-15T08:32:19.497Z,10.07
2017-04-15T08:32:45.025Z,10.05
2017-04-15T08:33:10.480Z,10.02
2017-04-15T08:33:35.947Z,10.16
2017-04-15T08:34:01.419Z,10.09
2017-04-15T08:34:26.913Z,10.1
2017-04-15T08:34:52.356Z,10.09
2017-04-15T08:35:17.813Z,10.15
2017-04-15T08:35:43.305Z,10.07
2017-04-15T08:36:08.794Z,10.17
2017-04-15T08:36:34.273Z,10.19
2017-04-15T08:36:59.769Z,10.22
2017-04-15T08:37:25.223Z,10.17
2017-04-15T08:37:50.737Z,10.15
2017-04-15T08:38:16.210Z,10.22
2017-04-15T08:38:41.695Z,10.25
2017-04-15T08:39:07.182Z,10.23
2017-04-15T08:39:32.659Z,10.13
2017-04-15T08:39:58.153Z,10.16
2017-04-15T08:40:23.673Z,10.16
2017-04-15T08:40:49.160Z,10.15
2017-04-15T08:41:14.628Z,10.19
2017-04-15T08:41:40.100Z,10.17
2017-04-15T08:42:05.587Z,10.23
2017-04-15T08:42:31.081Z,10.26
2017-04-15T08:42:56.558Z,10.19
2017-04-15T08:43:22.061Z,10.23
2017-04-15T08:43:47.538Z,10.3
2017-04-15T08:44:13.074Z,10.23
2017-04-15T08:44:38.554Z,10.28
2017-04-15T08:45:04.037Z,10.26
2017-04-15T08:45:29.549Z,10.31
2017-04-15T08:45:55.001Z,10.37
2017-04-15T08:46:20.485Z,10.44
2017-04-15T08:46:45.971Z,10.41
2017-04-15T08:47:11.457Z,10.34
2017-04-15T08:47:36.933Z,10.37
2017-04-15T08:48:02.443Z,10.35
2017-04-15T08:48:27.928Z,10.44
2017-04-15T08:48:53.402Z,10.4
2017-04-15T08:49:18.895Z,10.4
2017-04-15T08:49:44.383Z,10.35
2017-04-15T08:50:09.918Z,10.4
2017-04-15T08:50:35.383Z,10.42
2017-04-15T08:51:00.872Z,10.51
2017-04-15T08:51:26.350Z,10.53
2017-04-15T08:51:51.828Z,10.51
2017-04-15T08:52:17.304Z,10.49
2017-04-15T08:52:42.804Z,10.59
2017-04-15T08:53:08.263Z,10.53
2017-04-15T08:53:33.721Z,10.54
2017-04-15T08:53:59.205Z,10.59
2017-04-15T08:54:24.680Z,10.6
2017-04-15T08:54:50.152Z,10.63
2017-04-15T08:55:15.670Z,10.64
2017-04-15T08:55:41.158Z,10.61
2017-04-15T08:56:06.628Z,10.61
2017-04-15T08:56:32.090Z,10.64
2017-04-15T08:56:57.563Z,10.71
2017-04-15T08:57:23.072Z,10.79
2017-04-15T08:57:48.535Z,10.82
2017-04-15T08:58:14.048Z,10.79
2017-04-15T08:58:39.549Z,10.79
2017-04-15T08:59:05.043Z,10.79
2017-04-15T08:59:30.537Z,10.74
2017-04-15T08:59:56.042Z,10.78
2017-04-15T09:00:21.550Z,10.75
2017-04-15T09:00:47.033Z,10.79
2017-04-15T09:01:12.508Z,10.82
2017-04-15T09:01:37.997Z,10.76
2017-04-15T09:02:03.466Z,10.87
2017-04-15T09:02:28.929Z,10.86
2017-04-15T09:02:54.429Z,10.82
2017-04-15T09:03:19.908Z,10.92
2017-04-15T09:03:45.396Z,10.79
2017-04-15T09:04:10.866Z,10.93
2017-04-15T09:04:36.357Z,10.87
2017-04-15T09:05:01.827Z,10.92
2017-04-15T09:05:27.294Z,10.92
2017-04-15T09:05:52.781Z,10.89
2017-04-15T09:06:18.280Z,10.96
2017-04-15T09:06:43.773Z,10.84
2017-04-15T09:07:09.277Z,10.87
2017-04-15T09:07:34.783Z,10.86
2017-04-15T09:08:00.255Z,10.87
2017-04-15T09:08:25.836Z,10.99
2017-04-15T09:08:51.336Z,10.87
2017-04-15T09:09:16.806Z,10.9
2017-04-15T09:09:42.343Z,10.99
2017-04-15T09:10:07.830Z,10.87
2017-04-15T09:10:33.281Z,10.92
2017-04-15T09:11:31.311Z,10.92
2017-04-15T09:11:56.801Z,10.97
2017-04-15T09:12:22.263Z,10.93
2017-04-15T09:12:47.735Z,10.92
2017-04-15T09:13:13.204Z,10.86
2017-04-15T09:13:38.733Z,10.78
2017-04-15T09:14:04.248Z,10.86
2017-04-15T09:14:29.716Z,10.75
2017-04-15T09:14:55.174Z,10.81
2017-04-15T09:15:20.642Z,10.81
2017-04-15T09:15:46.102Z,10.78
2017-04-15T09:16:11.562Z,10.81
2017-04-15T09:16:37.033Z,10.89
2017-04-15T09:17:02.496Z,10.82
2017-04-15T09:17:27.959Z,10.87
2017-04-15T09:17:53.439Z,10.84
2017-04-15T09:18:18.905Z,10.94
2017-04-15T09:18:44.387Z,10.94
2017-04-15T09:19:09.860Z,10.81
2017-04-15T09:19:35.329Z,10.82
2017-04-15T09:20:00.824Z,10.9
2017-04-15T09:20:26.294Z,10.79
2017-04-15T09:20:51.775Z,10.78
2017-04-15T09:21:17.243Z,10.86
2017-04-15T09:21:42.742Z,10.78
2017-04-15T09:22:08.197Z,10.81
2017-04-15T09:22:33.695Z,10.78
2017-04-15T09:22:59.188Z,10.71
2017-04-15T09:23:24.640Z,10.71
2017-04-15T09:23:50.116Z,10.72
2017-04-15T09:24:15.582Z,10.81
2017-04-15T09:24:41.083Z,10.81
2017-04-15T09:25:06.524Z,10.81
2017-04-15T09:25:32.006Z,10.81
2017-04-15T09:25:57.455Z,10.78
2017-04-15T09:26:22.953Z,10.86
2017-04-15T09:26:48.444Z,10.84
2017-04-15T09:27:14.067Z,10.82
2017-04-15T09:27:39.543Z,10.79
2017-04-15T09:28:05.061Z,10.93
2017-04-15T09:28:30.550Z,10.84
2017-04-15T09:28:56.023Z,10.86
2017-04-15T09:29:21.501Z,10.84
2017-04-15T09:29:47.004Z,10.81
2017-04-15T09:30:12.509Z,10.89
2017-04-15T09:30:37.979Z,10.93
2017-04-15T09:31:03.459Z,10.93
2017-04-15T09:31:28.943Z,10.9
2017-04-15T09:31:54.384Z,10.84
2017-04-15T09:32:19.883Z,10.92
2017-04-15T09:32:45.351Z,10.84
2017-04-15T09:33:10.827Z,10.93
2017-04-15T09:33:36.340Z,10.86
2017-04-15T09:34:01.825Z,10.9
2017-04-15T09:34:27.308Z,10.87
2017-04-15T09:34:52.762Z,10.92
2017-04-15T09:35:18.243Z,10.97
2017-04-15T09:35:43.728Z,10.87
2017-04-15T09:36:09.213Z,10.94
2017-04-15T09:36:34.707Z,10.92
2017-04-15T09:37:00.196Z,10.93
2017-04-15T09:37:25.691Z,10.94
2017-04-15T09:37:51.160Z,10.86
2017-04-15T09:38:16.656Z,10.92